createdAt,value
2024-04-08T00:01:21.696Z,15.26
2024-04-08T00:16:33.511Z,15.19
2024-04-08T00:31:36.188Z,15.15
2024-04-08T00:46:38.667Z,15.06
2024-04-08T01:01:42.490Z,14.86
2024-04-08T01:16:45.122Z,14.78
2024-04-08T01:31:47.552Z,14.77
2024-04-08T01:46:49.988Z,14.80
2024-04-08T02:01:52.838Z,14.78
2024-04-08T02:16:55.673Z,14.68
2024-04-08T02:31:58.070Z,14.47
2024-04-08T02:47:00.952Z,14.42
2024-04-08T03:02:03.841Z,14.36
2024-04-08T03:17:06.530Z,14.21
2024-04-08T03:32:08.884Z,14.16
2024-04-08T03:47:11.313Z,14.15
2024-04-08T04:02:14.023Z,14.12
2024-04-08T04:17:16.583Z,14.02
2024-04-08T04:32:19.050Z,13.92
2024-04-08T04:47:22.250Z,13.98
2024-04-08T05:02:25.034Z,14.09
2024-04-08T05:17:27.977Z,14.21
2024-04-08T05:32:30.588Z,14.32
2024-04-08T05:47:33.407Z,14.52
2024-04-08T06:02:36.435Z,14.86
2024-04-08T06:17:39.242Z,15.33
2024-04-08T06:32:41.974Z,15.70
2024-04-08T06:47:44.590Z,16.16
2024-04-08T07:02:47.477Z,16.76
2024-04-08T07:17:50.148Z,17.34
2024-04-08T07:32:55.220Z,17.80
2024-04-08T07:47:58.038Z,18.28
2024-04-08T08:03:02.276Z,18.72
2024-04-08T08:18:05.810Z,19.11
2024-04-08T08:33:08.658Z,19.46
2024-04-08T08:48:11.393Z,19.69
2024-04-08T09:03:16.737Z,19.98
2024-04-08T09:18:22.306Z,20.42
2024-04-08T09:33:25.924Z,20.78
2024-04-08T09:48:31.064Z,21.19
2024-04-08T10:03:46.246Z,21.54
2024-04-08T10:18:54.681Z,22.17
2024-04-08T10:33:58.256Z,22.36
2024-04-08T10:49:07.870Z,22.89
2024-04-08T11:04:10.908Z,23.52
2024-04-08T11:19:16.929Z,24.00
2024-04-08T11:34:19.704Z,24.48
2024-04-08T11:49:22.300Z,24.83
2024-04-08T12:04:25.340Z,25.18
2024-04-08T12:19:29.155Z,25.51
2024-04-08T12:34:32.079Z,25.81
2024-04-08T12:49:34.634Z,26.03
2024-04-08T13:04:37.634Z,26.27
2024-04-08T13:19:46.356Z,26.48
2024-04-08T13:34:49.951Z,26.43
2024-04-08T13:49:52.619Z,26.40
2024-04-08T14:04:55.543Z,26.44
2024-04-08T14:19:58.693Z,26.64
2024-04-08T14:35:01.707Z,26.42
2024-04-08T14:50:05.218Z,26.32
2024-04-08T15:05:11.869Z,26.24
2024-04-08T15:20:15.175Z,26.05
2024-04-08T15:37:56.192Z,25.95
2024-04-08T15:52:58.893Z,25.62
2024-04-08T16:08:01.470Z,25.33
2024-04-08T16:23:21.194Z,25.02
2024-04-08T16:38:27.654Z,24.66
2024-04-08T16:53:30.443Z,24.26
2024-04-08T17:08:33.667Z,23.85
2024-04-08T17:23:37.425Z,23.47
2024-04-08T17:38:40.566Z,23.18
2024-04-08T17:53:43.608Z,22.93
2024-04-08T18:08:48.460Z,22.67
2024-04-08T18:23:51.604Z,22.26
2024-04-08T18:38:54.556Z,21.85
2024-04-08T18:53:57.519Z,21.47
2024-04-08T19:09:01.396Z,21.17
2024-04-08T19:24:04.844Z,20.78
2024-04-08T19:39:08.146Z,20.46
2024-04-08T19:54:11.206Z,20.13
2024-04-08T20:09:14.399Z,19.84
2024-04-08T20:24:17.966Z,19.56
2024-04-08T20:59:58.656Z,19.08
2024-04-08T21:15:04.923Z,18.76
2024-04-08T21:30:09.091Z,18.54
2024-04-08T21:45:11.878Z,18.32
2024-04-08T22:00:14.740Z,18.02
2024-04-08T22:15:17.159Z,17.85
2024-04-08T22:30:19.765Z,17.67
2024-04-08T22:45:22.424Z,17.51
2024-04-08T23:00:24.848Z,17.34
2024-04-08T23:15:27.356Z,17.18
2024-04-08T23:30:30.204Z,16.98
2024-04-08T23:45:32.690Z,16.80
